Time;durP1;ratioP1;P1;durP2;ratioP2;P2;SDS_P1;SDS_P2;PMS_P1;PMS_P2;Temp;Humidity;BMP_temperature;BMP_pressure;BME280_temperature;BME280_humidity;BME280_pressure;Samples;Min_cycle;Max_cycle;Signal;HPM_P1;HPM_P2
2022/11/07 00:01:53;;;;;;;4.47;1.60;;;9.20;86.30;;;;;;5105551;27;20036;-60
2022/11/07 00:04:19;;;;;;;3.45;1.67;;;9.20;86.40;;;;;;5108652;27;20518;-60
2022/11/07 00:06:48;;;;;;;4.70;1.70;;;9.20;86.40;;;;;;5103186;27;20044;-63
2022/11/07 00:09:15;;;;;;;4.25;1.80;;;9.30;86.40;;;;;;5106610;27;20044;-61
2022/11/07 00:11:51;;;;;;;4.72;1.70;;;9.30;86.40;;;;;;5109788;27;20409;-72
2022/11/07 00:14:18;;;;;;;3.70;1.60;;;9.30;86.50;;;;;;5106546;27;20486;-71
2022/11/07 00:16:47;;;;;;;3.70;1.58;;;9.30;86.60;;;;;;5109886;27;20052;-65
2022/11/07 00:19:16;;;;;;;3.83;1.50;;;9.30;86.60;;;;;;5108510;27;20045;-65
2022/11/07 00:21:44;;;;;;;3.87;1.40;;;9.30;86.90;;;;;;5107314;27;20626;-62
2022/11/07 00:24:17;;;;;;;3.38;1.58;;;9.30;86.80;;;;;;5108862;27;20051;-61
2022/11/07 00:26:44;;;;;;;3.72;1.63;;;9.30;86.80;;;;;;5108481;27;20039;-71
2022/11/07 00:29:12;;;;;;;2.75;1.38;;;9.40;86.90;;;;;;5107357;27;20135;-71
2022/11/07 00:31:39;;;;;;;3.25;1.23;;;9.40;86.90;;;;;;5105660;27;20047;-64
2022/11/07 00:34:06;;;;;;;3.85;1.67;;;9.40;86.90;;;;;;5102427;27;20035;-65
2022/11/07 00:36:33;;;;;;;3.92;1.63;;;9.40;87.00;;;;;;5103497;27;20134;-70
2022/11/07 00:39:00;;;;;;;5.07;1.42;;;9.40;87.10;;;;;;5107698;27;20080;-69
2022/11/07 00:41:30;;;;;;;3.25;1.40;;;9.40;87.10;;;;;;5107233;27;20552;-63
2022/11/07 00:43:57;;;;;;;4.05;1.40;;;9.40;87.10;;;;;;5109435;27;20059;-62
2022/11/07 00:46:24;;;;;;;3.45;1.40;;;9.40;87.20;;;;;;5120663;27;20069;-64
2022/11/07 00:48:51;;;;;;;3.50;1.38;;;9.40;87.20;;;;;;5111699;27;20044;-64
2022/11/07 00:51:20;;;;;;;4.03;1.50;;;9.40;87.20;;;;;;5109234;27;20051;-61
2022/11/07 00:53:47;;;;;;;5.00;1.67;;;9.50;87.20;;;;;;5105361;27;20051;-61
2022/11/07 00:56:16;;;;;;;3.00;1.40;;;9.50;87.10;;;;;;5107969;27;20043;-64
2022/11/07 00:58:45;;;;;;;4.18;1.52;;;9.40;87.20;;;;;;5108589;27;20059;-65
2022/11/07 01:01:14;;;;;;;2.92;1.20;;;9.40;87.30;;;;;;5111593;27;20398;-61
2022/11/07 01:06:27;;;;;;;4.25;1.52;;;9.40;87.30;;;;;;5101534;27;20078;-61
2022/11/07 01:08:55;;;;;;;3.05;1.40;;;9.50;87.40;;;;;;5104678;27;20046;-62
2022/11/07 01:11:23;;;;;;;5.72;1.60;;;9.50;87.40;;;;;;5101756;27;20056;-63
2022/11/07 01:13:55;;;;;;;2.67;1.38;;;9.50;87.40;;;;;;5106821;27;20062;-64
2022/11/07 01:16:22;;;;;;;4.35;1.70;;;9.50;87.30;;;;;;5104999;27;20414;-71
2022/11/07 01:18:52;;;;;;;4.35;1.63;;;9.50;87.20;;;;;;5108077;27;20043;-71
2022/11/07 01:21:19;;;;;;;2.55;1.40;;;9.50;87.40;;;;;;5107026;27;20498;-71
2022/11/07 01:23:46;;;;;;;2.97;1.60;;;9.50;87.40;;;;;;5100266;27;20042;-71
2022/11/07 01:26:14;;;;;;;3.35;1.40;;;9.60;87.40;;;;;;5096804;27;20046;-70
2022/11/07 01:28:42;;;;;;;3.20;1.30;;;9.50;87.40;;;;;;5102699;27;20044;-72
2022/11/07 01:31:13;;;;;;;3.53;1.50;;;9.60;87.40;;;;;;5105784;27;20051;-69
2022/11/07 01:33:40;;;;;;;4.57;1.60;;;9.60;87.40;;;;;;5103544;27;20040;-71
2022/11/07 01:36:11;;;;;;;6.68;1.40;;;9.50;87.30;;;;;;5104328;27;20043;-62
2022/11/07 01:38:40;;;;;;;4.35;1.67;;;9.60;87.40;;;;;;5104412;27;20043;-62
2022/11/07 01:41:24;;;;;;;2.78;1.40;;;9.60;87.40;;;;;;5105125;27;20048;-62
2022/11/07 01:43:54;;;;;;;3.22;1.35;;;9.60;87.40;;;;;;5101469;27;20055;-62
2022/11/07 01:46:26;;;;;;;3.90;1.20;;;9.60;87.60;;;;;;5103540;27;20507;-63
2022/11/07 01:48:57;;;;;;;2.80;1.38;;;9.60;87.70;;;;;;5103288;27;20048;-64
2022/11/07 01:51:29;;;;;;;3.40;1.50;;;9.60;87.60;;;;;;5105280;27;20066;-61
2022/11/07 01:53:56;;;;;;;2.63;1.40;;;9.60;87.90;;;;;;5107722;27;20055;-62
2022/11/07 01:56:26;;;;;;;4.25;1.50;;;9.50;87.90;;;;;;5105304;27;20058;-70
2022/11/07 01:58:55;;;;;;;3.75;1.25;;;9.60;88.20;;;;;;5103751;27;20050;-71
2022/11/07 02:01:24;;;;;;;3.38;1.85;;;9.60;88.20;;;;;;5095452;27;20066;-71
2022/11/07 02:03:54;;;;;;;3.92;1.52;;;9.60;88.30;;;;;;5104683;27;20169;-70
2022/11/07 02:06:26;;;;;;;3.63;1.20;;;9.50;88.30;;;;;;5107413;27;20142;-62
2022/11/07 02:08:54;;;;;;;3.83;1.63;;;9.60;88.30;;;;;;5108502;27;20055;-63
2022/11/07 02:11:23;;;;;;;3.28;1.50;;;9.60;88.50;;;;;;5107239;27;20066;-71
2022/11/07 02:13:50;;;;;;;3.17;1.35;;;9.60;88.60;;;;;;5105042;27;20048;-71
2022/11/07 02:16:17;;;;;;;3.20;1.52;;;9.60;88.70;;;;;;5105538;27;20116;-59
2022/11/07 02:18:47;;;;;;;2.58;1.25;;;9.60;88.70;;;;;;5104239;27;20048;-60
2022/11/07 02:21:22;;;;;;;4.50;1.58;;;9.60;88.70;;;;;;5107376;27;20110;-64
2022/11/07 02:23:57;;;;;;;3.13;1.30;;;9.60;88.80;;;;;;5104039;27;20040;-65
2022/11/07 02:26:28;;;;;;;2.28;1.50;;;9.60;88.90;;;;;;5108007;27;20046;-70
2022/11/07 02:28:57;;;;;;;3.13;1.30;;;9.60;88.80;;;;;;5106403;27;20557;-72
2022/11/07 02:31:24;;;;;;;3.60;1.48;;;9.60;89.00;;;;;;5105299;27;20138;-64
2022/11/07 02:33:51;;;;;;;5.38;1.88;;;9.60;89.10;;;;;;5107002;27;20059;-64
2022/11/07 02:36:21;;;;;;;3.47;1.45;;;9.60;89.10;;;;;;5103823;27;20065;-65
2022/11/07 02:38:56;;;;;;;3.30;1.52;;;9.60;89.30;;;;;;5107338;27;20051;-65
2022/11/07 02:41:25;;;;;;;3.78;1.50;;;9.60;89.20;;;;;;5102599;27;20055;-61
2022/11/07 02:43:57;;;;;;;4.30;1.48;;;9.60;89.40;;;;;;5107512;27;20143;-61
2022/11/07 02:46:25;;;;;;;4.80;1.63;;;9.60;89.40;;;;;;5105793;27;20051;-64
2022/11/07 02:48:55;;;;;;;2.65;1.55;;;9.60;89.40;;;;;;5103091;27;20066;-65
2022/11/07 02:51:22;;;;;;;4.38;1.60;;;9.60;89.50;;;;;;5107619;27;20052;-70
2022/11/07 02:53:51;;;;;;;4.15;1.42;;;9.60;89.30;;;;;;5106434;27;20161;-70
2022/11/07 02:56:18;;;;;;;5.45;1.65;;;9.60;89.50;;;;;;5103894;27;20054;-63
2022/11/07 02:58:45;;;;;;;4.20;1.58;;;9.60;89.50;;;;;;5103988;27;20050;-62
2022/11/07 03:01:14;;;;;;;2.90;1.30;;;9.60;89.40;;;;;;5103371;27;20052;-63
2022/11/07 03:03:43;;;;;;;2.95;1.58;;;9.70;89.40;;;;;;5105308;27;20047;-62
2022/11/07 03:06:12;;;;;;;4.53;1.60;;;9.70;89.40;;;;;;5100460;27;20482;-60
2022/11/07 03:08:39;;;;;;;2.20;1.17;;;9.70;89.50;;;;;;5104533;27;20115;-61
2022/11/07 03:11:07;;;;;;;2.97;1.27;;;9.70;89.70;;;;;;5107826;27;20071;-71
2022/11/07 03:13:34;;;;;;;4.82;1.60;;;9.70;89.60;;;;;;5104531;27;20122;-70
2022/11/07 03:16:05;;;;;;;3.97;1.50;;;9.70;89.50;;;;;;5104971;27;20064;-60
2022/11/07 03:18:34;;;;;;;4.22;1.60;;;9.70;89.60;;;;;;5105793;27;20039;-59
2022/11/07 03:21:01;;;;;;;3.88;1.50;;;9.70;89.60;;;;;;5105414;27;20065;-62
2022/11/07 03:23:28;;;;;;;4.40;1.40;;;9.70;89.80;;;;;;5108817;27;20069;-62
2022/11/07 03:25:55;;;;;;;4.57;1.90;;;9.70;89.80;;;;;;5124459;27;20056;-70
2022/11/07 03:28:22;;;;;;;4.00;1.75;;;9.70;90.10;;;;;;5107947;27;20439;-70
2022/11/07 03:30:51;;;;;;;3.13;1.52;;;9.70;89.90;;;;;;5102455;27;20408;-70
2022/11/07 03:33:18;;;;;;;3.13;1.52;;;9.70;89.80;;;;;;5104522;27;20051;-70
2022/11/07 03:35:46;;;;;;;3.42;1.77;;;9.70;90.00;;;;;;5104998;27;20051;-72
2022/11/07 03:38:13;;;;;;;4.68;1.70;;;9.70;90.00;;;;;;5104632;27;20101;-72
2022/11/07 03:40:40;;;;;;;4.45;1.55;;;9.70;90.00;;;;;;5087450;27;20485;-70
2022/11/07 03:43:07;;;;;;;4.03;1.55;;;9.70;90.10;;;;;;5102690;27;20047;-69
2022/11/07 03:45:34;;;;;;;2.88;1.40;;;9.70;90.10;;;;;;5104279;27;20044;-69
2022/11/07 03:48:01;;;;;;;3.50;1.95;;;9.60;90.10;;;;;;5100842;27;20082;-70
2022/11/07 03:50:28;;;;;;;3.05;1.50;;;9.70;90.10;;;;;;5102325;28;20043;-61
2022/11/07 03:52:56;;;;;;;4.03;1.67;;;9.70;90.10;;;;;;5105416;27;20132;-61
2022/11/07 03:55:23;;;;;;;3.28;1.38;;;9.70;90.10;;;;;;5106136;27;20058;-63
2022/11/07 03:57:50;;;;;;;3.25;1.40;;;9.70;90.00;;;;;;5101830;27;20036;-60
2022/11/07 04:00:17;;;;;;;3.65;1.80;;;9.70;90.20;;;;;;5104298;27;20493;-62
2022/11/07 04:02:44;;;;;;;3.50;1.45;;;9.70;89.60;;;;;;5106644;27;20092;-61
2022/11/07 04:05:14;;;;;;;4.07;1.65;;;9.70;90.00;;;;;;5104239;27;20047;-67
2022/11/07 04:07:41;;;;;;;3.53;1.70;;;9.70;90.00;;;;;;5107180;28;20123;-62
2022/11/07 04:10:09;;;;;;;4.47;1.52;;;9.70;90.10;;;;;;5102528;27;20040;-62
2022/11/07 04:18:05;;;;;;;4.00;1.50;;;9.70;90.10;;;;;;5101948;27;20067;-61
2022/11/07 04:20:32;;;;;;;3.42;1.75;;;9.70;90.10;;;;;;5101548;27;20047;-60
2022/11/07 04:22:58;;;;;;;3.95;1.58;;;9.70;90.00;;;;;;5102943;27;20485;-62
2022/11/07 04:28:11;;;;;;;3.67;1.70;;;9.70;90.00;;;;;;5097796;27;20047;-64
2022/11/07 04:30:38;;;;;;;3.85;1.80;;;9.70;90.10;;;;;;5114501;27;20137;-71
2022/11/07 04:33:05;;;;;;;4.53;1.70;;;9.70;90.10;;;;;;5103946;27;20047;-70
2022/11/07 04:35:33;;;;;;;3.88;1.92;;;9.70;90.20;;;;;;5105193;27;20051;-63
2022/11/07 04:38:00;;;;;;;4.40;1.70;;;9.80;90.20;;;;;;5103728;27;20428;-61
2022/11/07 04:40:30;;;;;;;3.95;1.55;;;9.70;90.30;;;;;;5108686;27;20058;-61
2022/11/07 04:42:57;;;;;;;3.30;1.40;;;9.70;90.10;;;;;;5103887;27;20051;-61
2022/11/07 04:45:24;;;;;;;4.97;1.98;;;9.80;90.20;;;;;;5107657;27;20401;-68
2022/11/07 04:47:51;;;;;;;5.28;2.30;;;9.80;90.30;;;;;;5105778;27;20056;-68
2022/11/07 04:50:20;;;;;;;3.47;1.73;;;9.80;90.30;;;;;;5102261;28;20455;-61
2022/11/07 04:52:47;;;;;;;5.63;1.85;;;9.80;90.40;;;;;;5108413;27;20123;-61
2022/11/07 04:55:20;;;;;;;3.53;1.60;;;9.80;90.30;;;;;;5106164;27;20052;-68
2022/11/07 04:57:48;;;;;;;4.20;1.80;;;9.70;90.40;;;;;;5107137;27;20077;-69
2022/11/07 05:00:17;;;;;;;3.10;1.83;;;9.70;90.50;;;;;;5108016;27;20052;-59
2022/11/07 05:02:44;;;;;;;4.80;1.83;;;9.70;90.60;;;;;;5105060;28;20068;-59
2022/11/07 05:05:14;;;;;;;5.32;1.85;;;9.70;90.60;;;;;;5106682;27;20071;-59
2022/11/07 05:07:41;;;;;;;4.32;2.05;;;9.70;90.60;;;;;;5110155;27;20489;-59
2022/11/07 05:10:13;;;;;;;5.30;1.88;;;9.80;90.60;;;;;;5104601;27;20044;-59
2022/11/07 05:12:40;;;;;;;4.53;1.45;;;9.80;90.40;;;;;;5106868;27;20683;-60
2022/11/07 05:15:09;;;;;;;4.05;1.90;;;9.80;90.40;;;;;;5106361;27;20121;-60
2022/11/07 05:17:36;;;;;;;3.75;1.75;;;9.80;90.50;;;;;;5108007;27;20046;-60
2022/11/07 05:20:05;;;;;;;4.28;2.08;;;9.80;90.30;;;;;;5099646;27;20448;-59
2022/11/07 05:25:28;;;;;;;4.32;1.75;;;9.70;90.40;;;;;;5020475;28;20507;-63
2022/11/07 05:27:55;;;;;;;2.63;1.40;;;9.80;90.30;;;;;;5092863;27;20104;-63
2022/11/07 05:30:23;;;;;;;4.45;2.00;;;9.80;90.30;;;;;;5104879;27;20043;-59
2022/11/07 05:32:51;;;;;;;3.97;1.50;;;9.80;90.40;;;;;;5103912;27;20040;-60
2022/11/07 05:35:18;;;;;;;3.92;1.92;;;9.80;90.40;;;;;;5107898;27;21950;-59
2022/11/07 05:37:46;;;;;;;3.60;1.60;;;9.90;90.40;;;;;;5105446;27;20400;-62
2022/11/07 05:40:12;;;;;;;4.20;1.63;;;9.90;90.30;;;;;;5103547;27;20508;-63
2022/11/07 05:42:39;;;;;;;5.90;1.80;;;9.90;90.40;;;;;;5107485;27;20047;-64
2022/11/07 05:45:08;;;;;;;4.32;1.55;;;9.90;90.30;;;;;;5104136;27;20127;-64
2022/11/07 05:47:36;;;;;;;3.40;1.80;;;9.90;90.10;;;;;;5103128;27;20058;-65
2022/11/07 05:50:03;;;;;;;4.22;1.60;;;9.90;90.40;;;;;;5104599;27;20039;-64
2022/11/07 05:52:31;;;;;;;3.70;1.60;;;9.90;90.40;;;;;;5106325;27;20047;-60
2022/11/07 05:54:58;;;;;;;3.42;1.77;;;9.90;90.20;;;;;;5105347;27;20051;-59
2022/11/07 05:57:25;;;;;;;4.60;1.40;;;9.90;90.40;;;;;;5105796;27;20050;-60
2022/11/07 05:59:51;;;;;;;2.35;1.15;;;9.90;90.30;;;;;;5105438;28;20057;-61
2022/11/07 06:02:18;;;;;;;5.80;1.85;;;9.90;90.20;;;;;;5105225;27;20047;-63
2022/11/07 06:04:46;;;;;;;3.40;1.45;;;9.90;90.20;;;;;;5118624;27;20067;-62
2022/11/07 06:07:13;;;;;;;3.03;1.35;;;9.90;90.20;;;;;;5123361;27;20047;-62
2022/11/07 06:09:40;;;;;;;3.40;1.35;;;9.90;90.20;;;;;;5108315;27;20044;-64
2022/11/07 06:12:07;;;;;;;4.10;1.50;;;9.90;90.20;;;;;;5107030;27;20043;-63
2022/11/07 06:14:34;;;;;;;4.85;1.85;;;9.90;90.20;;;;;;5108568;27;20063;-63
2022/11/07 06:17:02;;;;;;;3.70;1.67;;;9.90;90.20;;;;;;5099778;27;20044;-69
2022/11/07 06:19:29;;;;;;;4.18;1.42;;;9.80;90.30;;;;;;5106389;27;20050;-69
2022/11/07 06:21:57;;;;;;;3.83;1.80;;;9.80;90.30;;;;;;5105029;27;20123;-59
2022/11/07 06:24:25;;;;;;;5.45;1.70;;;9.90;90.30;;;;;;5108617;27;20067;-60
2022/11/07 06:26:52;;;;;;;4.22;1.45;;;9.90;90.30;;;;;;5105346;27;20413;-61
2022/11/07 06:29:19;;;;;;;3.22;1.50;;;9.90;90.20;;;;;;5106032;27;20039;-61
2022/11/07 06:31:46;;;;;;;4.88;1.50;;;9.90;90.30;;;;;;5107325;27;20055;-61
2022/11/07 06:34:13;;;;;;;3.60;1.45;;;9.90;90.20;;;;;;5103397;27;20047;-62
2022/11/07 06:36:40;;;;;;;2.80;1.40;;;9.90;90.20;;;;;;5097016;28;20417;-63
2022/11/07 06:39:08;;;;;;;3.03;1.45;;;9.90;90.20;;;;;;5102390;27;20399;-62
2022/11/07 06:41:35;;;;;;;3.38;1.20;;;9.90;90.20;;;;;;5107396;27;20048;-62
2022/11/07 06:44:02;;;;;;;5.57;1.73;;;9.90;90.20;;;;;;5106095;27;20474;-61
2022/11/07 06:46:29;;;;;;;2.65;1.15;;;10.00;90.20;;;;;;5102568;27;20062;-68
2022/11/07 06:48:56;;;;;;;3.45;1.52;;;9.90;90.20;;;;;;5100006;28;20047;-68
2022/11/07 06:51:23;;;;;;;4.65;1.77;;;9.90;90.10;;;;;;5105910;27;20043;-70
2022/11/07 06:53:50;;;;;;;5.75;1.90;;;10.00;90.30;;;;;;5108149;27;20036;-70
2022/11/07 06:56:19;;;;;;;3.92;1.88;;;10.00;90.30;;;;;;5104929;27;20485;-61
2022/11/07 06:58:46;;;;;;;4.18;1.77;;;10.00;90.30;;;;;;5108236;27;20040;-62
2022/11/07 07:01:13;;;;;;;5.93;2.25;;;10.00;90.40;;;;;;5104073;27;20059;-60
2022/11/07 07:03:41;;;;;;;5.30;2.28;;;10.00;90.30;;;;;;5106811;27;20044;-60
2022/11/07 07:06:12;;;;;;;6.13;2.47;;;10.10;90.30;;;;;;5103833;27;20477;-62
2022/11/07 07:08:42;;;;;;;5.95;2.80;;;10.10;90.30;;;;;;5107924;27;20047;-60
2022/11/07 07:11:11;;;;;;;7.60;3.10;;;10.10;90.40;;;;;;5105865;27;20044;-62
2022/11/07 07:13:39;;;;;;;4.80;2.35;;;10.10;90.30;;;;;;5088483;27;20494;-62
2022/11/07 07:16:08;;;;;;;8.88;3.35;;;10.10;90.30;;;;;;5102911;27;20493;-61
2022/11/07 07:18:35;;;;;;;5.47;2.60;;;10.10;90.40;;;;;;5105831;27;20055;-62
2022/11/07 07:21:05;;;;;;;6.75;2.28;;;10.10;90.40;;;;;;5105438;27;20043;-60
2022/11/07 07:23:33;;;;;;;6.22;2.70;;;10.10;90.40;;;;;;5104301;27;20058;-59
2022/11/07 07:26:01;;;;;;;6.63;2.47;;;10.10;90.40;;;;;;5104902;27;20129;-59
2022/11/07 07:28:28;;;;;;;6.20;2.50;;;10.20;90.30;;;;;;5104448;27;20044;-59
2022/11/07 07:31:08;;;;;;;7.20;2.88;;;10.20;90.60;;;;;;5103870;28;20414;-61
2022/11/07 07:33:35;;;;;;;6.72;2.63;;;10.20;90.50;;;;;;5101459;27;20050;-61
2022/11/07 07:36:02;;;;;;;5.40;2.35;;;10.20;90.40;;;;;;5102956;27;20079;-68
2022/11/07 07:38:29;;;;;;;5.43;2.53;;;10.20;90.30;;;;;;5101895;27;20048;-68
2022/11/07 07:40:57;;;;;;;5.53;2.15;;;10.30;90.40;;;;;;5106155;27;20047;-59
2022/11/07 07:43:24;;;;;;;6.70;2.47;;;10.30;90.40;;;;;;5104188;27;20055;-61
2022/11/07 07:45:51;;;;;;;4.88;2.08;;;10.40;90.30;;;;;;5103235;27;20135;-64
2022/11/07 07:48:20;;;;;;;4.90;1.73;;;10.40;90.50;;;;;;5103900;27;20058;-64
2022/11/07 07:50:48;;;;;;;7.60;1.73;;;10.40;90.30;;;;;;5102410;28;20069;-62
2022/11/07 07:53:16;;;;;;;3.97;1.50;;;10.40;90.30;;;;;;5103394;27;20565;-62
2022/11/07 07:55:43;;;;;;;7.25;1.80;;;10.50;90.30;;;;;;5105337;27;20047;-61
2022/11/07 07:58:10;;;;;;;3.70;1.33;;;10.50;90.30;;;;;;5101583;27;20040;-62
2022/11/07 08:00:37;;;;;;;5.10;1.60;;;10.50;90.20;;;;;;5102649;27;20152;-64
2022/11/07 08:03:08;;;;;;;4.18;1.42;;;10.60;90.10;;;;;;5103603;27;20413;-63
2022/11/07 08:05:37;;;;;;;6.57;1.70;;;10.60;90.00;;;;;;5102334;27;20062;-70
2022/11/07 08:08:05;;;;;;;6.35;1.73;;;10.60;89.90;;;;;;5102409;27;20046;-69
2022/11/07 08:10:32;;;;;;;6.35;1.55;;;10.70;89.80;;;;;;5103711;27;20040;-69
2022/11/07 08:12:59;;;;;;;5.53;1.33;;;10.70;89.70;;;;;;5105612;27;20040;-68
2022/11/07 08:15:29;;;;;;;5.65;1.33;;;10.80;89.70;;;;;;5106668;27;20830;-68
2022/11/07 08:17:56;;;;;;;4.65;1.63;;;10.80;89.50;;;;;;5106403;27;20474;-69
2022/11/07 08:20:23;;;;;;;4.45;1.50;;;10.90;89.40;;;;;;5102304;27;20055;-63
2022/11/07 08:22:59;;;;;;;7.25;1.63;;;10.90;89.30;;;;;;5110002;27;20440;-63
2022/11/07 08:25:28;;;;;;;3.65;1.70;;;11.00;89.20;;;;;;5105449;27;20046;-69
2022/11/07 08:27:55;;;;;;;6.47;1.52;;;11.00;89.30;;;;;;5105764;27;20044;-68
2022/11/07 08:30:22;;;;;;;5.38;1.23;;;11.00;89.20;;;;;;5107313;27;20089;-61
2022/11/07 08:32:49;;;;;;;8.43;1.92;;;11.00;89.20;;;;;;5108075;27;20039;-63
2022/11/07 08:35:16;;;;;;;3.05;1.17;;;11.00;89.10;;;;;;5108019;27;20078;-69
2022/11/07 08:37:43;;;;;;;4.88;1.25;;;11.00;89.00;;;;;;5108517;27;20044;-68
2022/11/07 08:40:14;;;;;;;4.82;1.20;;;11.00;89.00;;;;;;5105721;27;20047;-65
2022/11/07 08:42:41;;;;;;;6.47;1.33;;;11.10;88.90;;;;;;5106349;27;20070;-65
2022/11/07 08:45:09;;;;;;;3.85;1.50;;;11.10;88.90;;;;;;5113858;27;20108;-65
2022/11/07 08:47:36;;;;;;;4.07;1.02;;;11.10;88.90;;;;;;5127653;27;21288;-64
2022/11/07 08:50:04;;;;;;;5.28;1.50;;;11.10;88.90;;;;;;5117311;27;20393;-65
2022/11/07 08:52:31;;;;;;;5.25;1.45;;;11.10;88.90;;;;;;5109358;27;20051;-62
2022/11/07 08:54:57;;;;;;;7.07;1.80;;;11.20;88.80;;;;;;5109191;27;20047;-61
2022/11/07 08:57:26;;;;;;;4.28;1.27;;;11.20;88.70;;;;;;5098305;27;20058;-69
2022/11/07 08:59:53;;;;;;;5.43;1.35;;;11.20;88.60;;;;;;5104617;27;20454;-70
2022/11/07 09:02:20;;;;;;;4.70;1.50;;;11.20;88.60;;;;;;5110949;27;20054;-61
2022/11/07 09:04:47;;;;;;;5.05;1.50;;;11.20;88.60;;;;;;5108716;27;20059;-60
2022/11/07 09:07:14;;;;;;;3.95;1.00;;;11.30;88.50;;;;;;5107903;27;20054;-64
2022/11/07 09:09:41;;;;;;;4.03;1.20;;;11.40;88.50;;;;;;5107438;27;20055;-65
2022/11/07 09:12:08;;;;;;;5.30;1.63;;;11.50;88.40;;;;;;5109494;27;20048;-69
2022/11/07 09:14:36;;;;;;;4.13;1.02;;;11.50;88.20;;;;;;5103049;28;20455;-69
2022/11/07 09:17:03;;;;;;;6.20;1.38;;;11.60;87.90;;;;;;5105027;27;20047;-68
2022/11/07 09:19:31;;;;;;;5.10;1.23;;;11.70;87.80;;;;;;5106663;27;20054;-69
2022/11/07 09:21:58;;;;;;;5.03;1.42;;;11.70;87.60;;;;;;5105822;27;20051;-70
2022/11/07 09:24:25;;;;;;;4.57;1.55;;;11.80;87.60;;;;;;5106536;27;20127;-68
2022/11/07 09:26:52;;;;;;;4.25;1.30;;;11.90;87.50;;;;;;5107915;27;20044;-69
2022/11/07 09:29:20;;;;;;;4.03;1.35;;;11.90;87.50;;;;;;5101301;27;20482;-69
2022/11/07 09:31:48;;;;;;;5.05;1.40;;;12.00;87.20;;;;;;5098215;27;20122;-68
2022/11/07 09:34:15;;;;;;;4.32;1.23;;;12.00;87.20;;;;;;5107399;27;20075;-69
2022/11/07 09:36:42;;;;;;;5.03;1.20;;;12.00;87.00;;;;;;5106622;27;20534;-64
2022/11/07 09:39:08;;;;;;;6.53;1.20;;;12.00;86.70;;;;;;5104907;27;20044;-64
2022/11/07 09:41:51;;;;;;;5.57;1.15;;;12.10;86.50;;;;;;5104200;27;20583;-61
2022/11/07 09:44:39;;;;;;;4.82;1.30;;;12.10;86.70;;;;;;5102400;27;20410;-62
2022/11/07 09:47:18;;;;;;;5.63;1.27;;;12.20;86.40;;;;;;5103234;27;20044;-61
2022/11/07 09:49:49;;;;;;;4.80;1.10;;;12.20;86.20;;;;;;5103300;27;20052;-60
2022/11/07 09:52:22;;;;;;;4.95;1.50;;;12.30;86.10;;;;;;5105890;27;20051;-61
2022/11/07 09:54:53;;;;;;;6.45;1.05;;;12.40;86.10;;;;;;5100321;27;20126;-62
2022/11/07 09:57:20;;;;;;;6.07;1.60;;;12.40;85.80;;;;;;5105855;27;20043;-62
2022/11/07 09:59:53;;;;;;;4.90;1.08;;;12.50;85.70;;;;;;5105906;27;20049;-62
2022/11/07 10:02:24;;;;;;;5.78;1.25;;;12.50;85.70;;;;;;5097032;27;20044;-63
2022/11/07 10:04:56;;;;;;;7.32;1.27;;;12.50;85.50;;;;;;5105863;27;20045;-62
2022/11/07 10:07:31;;;;;;;3.45;1.05;;;12.50;85.50;;;;;;5101864;28;20055;-63
2022/11/07 10:10:03;;;;;;;4.43;1.08;;;12.50;85.40;;;;;;5105361;27;20066;-63
2022/11/07 10:13:06;;;;;;;6.30;1.17;;;12.50;85.20;;;;;;5104224;27;20058;-63
2022/11/07 10:15:44;;;;;;;3.15;1.00;;;12.50;85.00;;;;;;5102661;27;20051;-69
2022/11/07 10:18:23;;;;;;;2.95;1.15;;;12.50;84.90;;;;;;5102098;27;20470;-70
2022/11/07 10:21:01;;;;;;;5.22;1.20;;;12.50;85.10;;;;;;5104472;28;20039;-61
2022/11/07 10:23:45;;;;;;;4.88;1.30;;;12.50;85.00;;;;;;5104342;27;20122;-62
2022/11/07 10:26:17;;;;;;;8.25;1.23;;;12.50;84.90;;;;;;5107147;27;20047;-63
2022/11/07 10:28:46;;;;;;;5.90;1.38;;;12.50;84.90;;;;;;5105558;27;20112;-63
2022/11/07 10:31:15;;;;;;;5.97;1.67;;;12.50;85.10;;;;;;5103197;27;20089;-62
2022/11/07 10:33:51;;;;;;;8.20;1.98;;;12.40;85.10;;;;;;5104433;27;20050;-62
2022/11/07 10:36:23;;;;;;;5.45;1.42;;;12.40;85.20;;;;;;5100001;27;20055;-70
2022/11/07 10:38:51;;;;;;;5.75;2.20;;;12.40;85.00;;;;;;5106712;27;20044;-70
2022/11/07 10:41:20;;;;;;;5.32;1.80;;;12.40;85.10;;;;;;5102714;27;20062;-59
2022/11/07 10:43:51;;;;;;;6.60;2.22;;;12.40;85.30;;;;;;5102249;27;20562;-59
2022/11/07 10:46:22;;;;;;;4.07;1.55;;;12.40;85.30;;;;;;5099682;27;20478;-69
2022/11/07 10:48:56;;;;;;;5.13;1.52;;;12.40;85.10;;;;;;5103033;28;20486;-69
2022/11/07 10:51:39;;;;;;;5.03;1.35;;;12.50;85.10;;;;;;5102397;27;20064;-62
2022/11/07 10:54:06;;;;;;;4.15;1.02;;;12.50;85.00;;;;;;5102719;27;20086;-62
2022/11/07 10:56:44;;;;;;;4.07;1.50;;;12.40;85.00;;;;;;5104711;27;20044;-62
2022/11/07 10:59:12;;;;;;;4.10;1.08;;;12.60;84.70;;;;;;5103480;27;20454;-63
2022/11/07 11:01:40;;;;;;;5.90;1.67;;;12.60;84.90;;;;;;5102515;27;20059;-63
2022/11/07 11:04:09;;;;;;;8.00;1.33;;;12.60;84.90;;;;;;5103232;27;20517;-64
2022/11/07 11:06:36;;;;;;;6.07;1.95;;;12.60;84.90;;;;;;5104502;27;20043;-60
2022/11/07 11:09:17;;;;;;;5.45;1.13;;;12.60;85.00;;;;;;5105085;27;20078;-60
2022/11/07 11:11:50;;;;;;;4.93;0.98;;;12.60;85.00;;;;;;5094877;27;20425;-63
2022/11/07 11:14:20;;;;;;;4.07;1.13;;;12.60;84.70;;;;;;5106040;27;20454;-63
2022/11/07 11:16:51;;;;;;;4.18;1.38;;;12.60;84.90;;;;;;5103680;27;20059;-71
2022/11/07 11:19:24;;;;;;;5.53;1.23;;;12.70;84.80;;;;;;5099172;27;20055;-70
2022/11/07 11:21:54;;;;;;;8.57;1.45;;;12.70;84.60;;;;;;5103715;27;20111;-71
2022/11/07 11:24:31;;;;;;;6.03;1.23;;;12.70;84.70;;;;;;5107139;27;20059;-70
2022/11/07 11:27:03;;;;;;;4.65;1.10;;;12.70;84.50;;;;;;5112944;27;20107;-62
2022/11/07 11:29:38;;;;;;;5.10;1.30;;;12.70;84.40;;;;;;5113676;27;20108;-61
2022/11/07 11:32:11;;;;;;;3.78;1.30;;;12.70;84.50;;;;;;5104782;27;20036;-65
2022/11/07 11:34:53;;;;;;;9.73;1.40;;;12.70;84.60;;;;;;5106010;27;20044;-64
2022/11/07 11:37:22;;;;;;;6.10;1.58;;;12.70;84.50;;;;;;5105748;27;20081;-70
2022/11/07 11:40:08;;;;;;;4.95;1.10;;;12.70;84.50;;;;;;5105581;27;20047;-71
2022/11/07 11:42:45;;;;;;;3.60;1.00;;;12.60;84.50;;;;;;5106637;27;20043;-70
2022/11/07 11:45:17;;;;;;;5.45;1.10;;;12.60;84.70;;;;;;5104304;27;20140;-71
2022/11/07 11:47:52;;;;;;;6.80;1.20;;;12.60;84.80;;;;;;5106709;27;20056;-63
2022/11/07 11:50:27;;;;;;;5.80;1.40;;;12.60;85.00;;;;;;5106091;27;20051;-62
2022/11/07 11:52:54;;;;;;;5.50;1.25;;;12.60;84.90;;;;;;5107686;27;20050;-62
2022/11/07 11:55:25;;;;;;;5.00;1.30;;;12.60;84.60;;;;;;5107899;27;20046;-62
2022/11/07 11:58:01;;;;;;;3.67;1.52;;;12.60;84.80;;;;;;5104385;27;20051;-62
2022/11/07 12:00:31;;;;;;;3.55;0.85;;;12.60;84.90;;;;;;5108312;27;20167;-63
2022/11/07 12:03:22;;;;;;;;;;;12.60;84.80;;;;;;5101364;27;20046;-62
2022/11/07 12:06:19;;;;;;;7.55;1.23;;;12.60;84.80;;;;;;5103355;28;20468;-71
2022/11/07 12:09:14;;;;;;;5.40;1.05;;;12.60;85.00;;;;;;5109642;27;20083;-71
2022/11/07 12:11:54;;;;;;;4.35;0.98;;;12.60;85.10;;;;;;5107818;27;20450;-62
2022/11/07 12:14:49;;;;;;;5.45;0.80;;;12.60;85.20;;;;;;5105828;27;20083;-62
2022/11/07 12:17:23;;;;;;;4.22;0.80;;;12.70;85.40;;;;;;5092469;27;20051;-71
2022/11/07 12:19:55;;;;;;;4.53;0.90;;;12.70;85.40;;;;;;5109366;27;20402;-70
2022/11/07 12:22:38;;;;;;;5.70;1.10;;;12.80;85.50;;;;;;5109084;27;20047;-62
2022/11/07 12:25:11;;;;;;;3.85;0.98;;;12.90;85.30;;;;;;5109487;27;20066;-63
2022/11/07 12:27:47;;;;;;;5.30;1.00;;;12.90;85.40;;;;;;5103965;27;20056;-62
2022/11/07 12:30:21;;;;;;;6.40;1.23;;;12.90;85.20;;;;;;5108270;27;20059;-63
2022/11/07 12:33:02;;;;;;;5.43;1.20;;;13.00;84.80;;;;;;5111329;27;20055;-64
2022/11/07 12:35:47;;;;;;;4.60;1.05;;;13.00;84.70;;;;;;5109769;27;20042;-64
2022/11/07 12:38:42;;;;;;;5.57;1.70;;;13.00;84.70;;;;;;5107754;27;20644;-63
2022/11/07 12:41:19;;;;;;;7.35;1.27;;;13.00;84.50;;;;;;5108614;27;20070;-63
2022/11/07 12:43:57;;;;;;;4.00;1.15;;;13.10;84.40;;;;;;5108859;27;20093;-62
2022/11/07 12:46:30;;;;;;;5.95;1.38;;;13.00;84.50;;;;;;5108337;27;20056;-64
2022/11/07 12:49:30;;;;;;;3.75;1.00;;;13.10;84.30;;;;;;5107929;27;20451;-64
2022/11/07 12:52:08;;;;;;;4.35;1.15;;;13.10;84.30;;;;;;5109339;27;20406;-71
2022/11/07 12:54:42;;;;;;;6.30;1.80;;;13.20;84.30;;;;;;5107706;27;20048;-70
2022/11/07 12:57:16;;;;;;;4.68;1.10;;;13.10;84.20;;;;;;5108567;27;20410;-63
2022/11/07 12:59:48;;;;;;;3.40;1.05;;;13.10;84.00;;;;;;5107813;27;20131;-63
2022/11/07 13:02:28;;;;;;;4.43;1.20;;;13.10;84.10;;;;;;5102906;27;20075;-64
2022/11/07 13:04:59;;;;;;;4.03;1.23;;;13.10;84.20;;;;;;5107505;27;20447;-64
2022/11/07 13:07:33;;;;;;;5.78;1.38;;;13.10;84.30;;;;;;5105956;27;20073;-72
2022/11/07 13:10:08;;;;;;;6.45;1.40;;;13.10;84.10;;;;;;5104943;27;20054;-71
2022/11/07 13:12:41;;;;;;;3.80;1.50;;;13.20;84.20;;;;;;5104052;27;20252;-69
2022/11/07 13:15:11;;;;;;;4.50;1.08;;;13.10;84.20;;;;;;5106119;27;20044;-71
2022/11/07 13:17:43;;;;;;;3.25;1.05;;;13.10;84.00;;;;;;5105686;27;20047;-71
2022/11/07 13:20:29;;;;;;;4.32;0.77;;;13.10;84.10;;;;;;5104633;27;20585;-71
2022/11/07 13:22:58;;;;;;;4.90;1.00;;;13.10;84.10;;;;;;5094386;27;20103;-71